Mary Ellen — WDB4416 — position and weather

sailwx.info

Track history (hours):
 
Tides and Currents Weather Stations Pressure Air Temp Water Temp Dewpoint Dewpoint Depression Visibility Wind Speed Wind Dir Waves Ship Positions

Mary Ellen

Owner: CROSS SOUND FERRY SERVICES INC, NEW LONDON, CT. More information available from US FCC via Universal Licensing System and Coast Guard Vessel Documentation Center.

Last reported at 2018-Feb-15 12:53 UTC. Time now 2018-Feb-22 07:19 UTC.
Position N 41°17' W 072°06'.

Length 80 m; draft 3.3 m.

Type: Passenger vessel. MMSI: 366898190.

Date/timePositionNaut miles runAvg speedWind from/ knotsBaromVisibWave heightAir tempDewpointWater temp
2018-Feb-15 12:53N 41°17' W 072°06'513.2
2018-Feb-15 12:28N 41°13' W 072°11'4 0.4
2018-Feb-15 01:09N 41°09' W 072°14'1 8.1
2018-Feb-15 01:00N 41°10' W 072°13'814.4
2018-Feb-15 00:28N 41°16' W 072°07'3 1.8
2018-Feb-14 23:03N 41°18' W 072°05'112.5
2018-Feb-14 22:58N 41°17' W 072°05'613.0
2018-Feb-14 22:30N 41°13' W 072°11'4 3.6
2018-Feb-14 21:17N 41°09' W 072°14'3 9.8
2018-Feb-14 20:57N 41°12' W 072°13'613.0
2018-Feb-14 20:30N 41°16' W 072°07'1 0.7
2018-Feb-14 18:47N 41°15' W 072°06'514.7
2018-Feb-14 18:28N 41°12' W 072°11'4 3.0
2018-Feb-14 17:11N 41°09' W 072°14'212.9
2018-Feb-14 17:00N 41°11' W 072°13'713.0
2018-Feb-14 16:29N 41°16' W 072°07'1 0.6
2018-Feb-14 14:54N 41°17' W 072°06'613.2
2018-Feb-14 14:27N 41°12' W 072°11'4 3.1
2018-Feb-14 13:11N 41°09' W 072°14'211.3
2018-Feb-14 13:00N 41°11' W 072°13'814.7
2018-Feb-14 12:29N 41°16' W 072°05'1 0.0
2018-Feb-14 00:57N 41°17' W 072°06'512.4
2018-Feb-14 00:30N 41°13' W 072°11'5 5.8
2018-Feb-13 23:43N 41°09' W 072°14'0 0.5
2018-Feb-13 23:11N 41°09' W 072°14'1 8.7
2018-Feb-13 23:00N 41°10' W 072°14'814.6
2018-Feb-13 22:30N 41°16' W 072°07'1 0.7
2018-Feb-13 20:50N 41°17' W 072°06'514.7
2018-Feb-13 20:30N 41°13' W 072°10'5 4.0
2018-Feb-13 19:18N 41°09' W 072°14'311.3
2018-Feb-13 19:01N 41°12' W 072°13'611.8
2018-Feb-13 18:30N 41°16' W 072°07'1 0.6
2018-Feb-13 16:52N 41°16' W 072°06'614.5
2018-Feb-13 16:27N 41°12' W 072°11'3 2.5
2018-Feb-13 15:12N 41°09' W 072°13'312.3
2018-Feb-13 14:58N 41°12' W 072°13'613.4
2018-Feb-13 14:30N 41°16' W 072°07'1 0.6
2018-Feb-13 13:03N 41°17' W 072°05'111.6
2018-Feb-13 12:59N 41°16' W 072°06'511.3
2018-Feb-13 12:30N 41°12' W 072°11'4 0.3
2018-Feb-13 01:09N 41°09' W 072°14'210.5
2018-Feb-13 01:00N 41°11' W 072°13'714.0
2018-Feb-13 00:29N 41°16' W 072°07'1 0.8
2018-Feb-12 22:54N 41°17' W 072°05'613.5
2018-Feb-12 22:29N 41°13' W 072°11'4 3.4
2018-Feb-12 21:11N 41°09' W 072°14'2 9.0
2018-Feb-12 21:00N 41°11' W 072°14'714.2
2018-Feb-12 20:30N 41°16' W 072°08'3 1.4
2018-Feb-12 18:38N 41°14' W 072°09'214.1
2018-Feb-12 18:30N 41°12' W 072°11'4 2.9
2018-Feb-12 17:12N 41°09' W 072°13'211.3
2018-Feb-12 17:00N 41°12' W 072°13'712.1
2018-Feb-12 16:27N 41°16' W 072°07'1 0.7
2018-Feb-12 14:49N 41°15' W 072°07'413.0
2018-Feb-12 14:29N 41°12' W 072°11'4 3.2
2018-Feb-12 13:15N 41°09' W 072°14'311.2
2018-Feb-12 13:00N 41°12' W 072°13'713.2
2018-Feb-12 12:30N 41°16' W 072°07'1 0.1
2018-Feb-12 00:55N 41°16' W 072°06'612.9
2018-Feb-12 00:29N 41°13' W 072°11'3 1.9
2018-Feb-11 23:02N 41°10' W 072°13'012.3
2018-Feb-11 23:00N 41°10' W 072°14'8 3.9
2018-Feb-11 20:52N 41°17' W 072°06'513.2
2018-Feb-11 20:30N 41°13' W 072°10'5 3.6
2018-Feb-11 19:13N 41°09' W 072°14'311.5
2018-Feb-11 18:58N 41°12' W 072°12'612.9
2018-Feb-11 18:29N 41°16' W 072°07'1 0.5
2018-Feb-11 16:53N 41°16' W 072°06'513.8
2018-Feb-11 16:30N 41°13' W 072°11'4 3.7
2018-Feb-11 15:20N 41°09' W 072°14'3 9.4
2018-Feb-11 15:00N 41°12' W 072°13'612.2
2018-Feb-11 14:30N 41°16' W 072°07'1 0.7
2018-Feb-11 12:52N 41°17' W 072°06'614.1
2018-Feb-11 12:28N 41°13' W 072°11'4 0.4
2018-Feb-11 01:06N 41°09' W 072°14'111.3
2018-Feb-11 00:59N 41°10' W 072°13'814.2
2018-Feb-11 00:27N 41°16' W 072°07'1 0.7
2018-Feb-10 22:56N 41°17' W 072°06'612.7
2018-Feb-10 22:29N 41°13' W 072°11'4 3.3
2018-Feb-10 21:14N 41°09' W 072°14'2 7.5
2018-Feb-10 21:01N 41°11' W 072°14'713.9
2018-Feb-10 20:30N 41°16' W 072°07'2 1.0
2018-Feb-10 18:57N 41°17' W 072°06'613.3
2018-Feb-10 18:30N 41°12' W 072°11'4 3.2
2018-Feb-10 17:14N 41°09' W 072°14'311.4
2018-Feb-10 17:00N 41°12' W 072°13'613.0
2018-Feb-10 16:31N 41°16' W 072°07'2 1.5
2018-Feb-10 14:58N 41°18' W 072°05'714.2
2018-Feb-10 14:28N 41°13' W 072°11'4 3.1
2018-Feb-10 13:09N 41°09' W 072°14'1 8.0
2018-Feb-10 12:59N 41°10' W 072°13'714.0
2018-Feb-10 12:30N 41°16' W 072°08'2 0.2
2018-Feb-10 00:53N 41°17' W 072°06'614.4
2018-Feb-10 00:30N 41°13' W 072°11'5 3.4
2018-Feb-09 23:10N 41°09' W 072°14'2 9.8
2018-Feb-09 23:00N 41°11' W 072°13'313.1
2018-Feb-09 22:46N 41°13' W 072°11'3 0.9
2018-Feb-09 19:01N 41°10' W 072°13'4 0.2
2018-Feb-08 22:30N 41°13' W 072°10'3 0.5
2018-Feb-08 16:30N 41°15' W 072°08'3 1.5
2018-Feb-08 14:30N 41°13' W 072°10'2 0.2
2018-Feb-08 00:43N 41°14' W 072°08'315.4
2018-Feb-08 00:29N 41°12' W 072°12'4 2.9
2018-Feb-07 23:15N 41°09' W 072°14'3 9.6
2018-Feb-07 22:58N 41°12' W 072°14'713.1
2018-Feb-07 22:27N 41°16' W 072°07'9 0.4
2018-Feb-07 01:14N 41°09' W 072°14'311.9
2018-Feb-07 01:00N 41°12' W 072°13'611.9
2018-Feb-07 00:30N 41°16' W 072°07'1 0.9
2018-Feb-06 22:55N 41°17' W 072°05'614.3
2018-Feb-06 22:30N 41°13' W 072°11'4 3.3
2018-Feb-06 21:14N 41°09' W 072°14'210.8
2018-Feb-06 21:00N 41°11' W 072°13'713.5
2018-Feb-06 20:30N 41°16' W 072°07'1 0.9
2018-Feb-06 19:00N 41°17' W 072°06'612.2
2018-Feb-06 18:29N 41°12' W 072°11'4 2.9
2018-Feb-06 17:12N 41°09' W 072°14'210.1
2018-Feb-06 17:00N 41°11' W 072°13'713.7
2018-Feb-06 16:29N 41°16' W 072°07'1 0.5
2018-Feb-06 14:54N 41°17' W 072°06'613.6
2018-Feb-06 14:28N 41°12' W 072°11'3 2.8
2018-Feb-06 13:13N 41°09' W 072°13'312.3
2018-Feb-06 13:00N 41°12' W 072°13'611.6
2018-Feb-06 12:30N 41°16' W 072°07'2 0.1
2018-Feb-06 00:55N 41°16' W 072°05'613.4
2018-Feb-06 00:30N 41°12' W 072°10'4 3.3
2018-Feb-05 23:10N 41°09' W 072°14'211.9
2018-Feb-05 22:58N 41°11' W 072°13'612.9
2018-Feb-05 22:30N 41°16' W 072°08'2 1.0
2018-Feb-05 20:55N 41°17' W 072°06'613.7
2018-Feb-05 20:30N 41°12' W 072°11'3 2.0
2018-Feb-05 19:03N 41°11' W 072°14'113.4
2018-Feb-05 18:59N 41°11' W 072°13'713.8
2018-Feb-05 18:30N 41°16' W 072°07'1 0.5
2018-Feb-05 16:53N 41°16' W 072°06'512.1
2018-Feb-05 16:29N 41°12' W 072°11'3 1.9
2018-Feb-05 15:03N 41°10' W 072°14'112.9
2018-Feb-05 15:00N 41°11' W 072°13'713.4
2018-Feb-05 14:27N 41°16' W 072°07'  
Track history (hours):
 
Tides and Currents Weather Stations Pressure Air Temp Water Temp Dewpoint Dewpoint Depression Visibility Wind Speed Wind Dir Waves Ship Positions

Mary Ellen

Owner: CROSS SOUND FERRY SERVICES INC, NEW LONDON, CT. More information available from US FCC via Universal Licensing System and Coast Guard Vessel Documentation Center.

Last reported at 2018-Feb-15 12:53 UTC. Time now 2018-Feb-22 07:19 UTC.
Position N 41°17' W 072°06'.

Length 80 m; draft 3.3 m.

Type: Passenger vessel. MMSI: 366898190.

Date/timePositionNaut miles runAvg speedWind from/ knotsBaromVisibWave heightAir tempDewpointWater temp
2018-Feb-15 12:53N 41°17' W 072°06'513.2
2018-Feb-15 12:28N 41°13' W 072°11'4 0.4
2018-Feb-15 01:09N 41°09' W 072°14'1 8.1
2018-Feb-15 01:00N 41°10' W 072°13'814.4
2018-Feb-15 00:28N 41°16' W 072°07'3 1.8
2018-Feb-14 23:03N 41°18' W 072°05'112.5
2018-Feb-14 22:58N 41°17' W 072°05'613.0
2018-Feb-14 22:30N 41°13' W 072°11'4 3.6
2018-Feb-14 21:17N 41°09' W 072°14'3 9.8
2018-Feb-14 20:57N 41°12' W 072°13'613.0
2018-Feb-14 20:30N 41°16' W 072°07'1 0.7
2018-Feb-14 18:47N 41°15' W 072°06'514.7
2018-Feb-14 18:28N 41°12' W 072°11'4 3.0
2018-Feb-14 17:11N 41°09' W 072°14'212.9
2018-Feb-14 17:00N 41°11' W 072°13'713.0
2018-Feb-14 16:29N 41°16' W 072°07'1 0.6
2018-Feb-14 14:54N 41°17' W 072°06'613.2
2018-Feb-14 14:27N 41°12' W 072°11'4 3.1
2018-Feb-14 13:11N 41°09' W 072°14'211.3
2018-Feb-14 13:00N 41°11' W 072°13'814.7
2018-Feb-14 12:29N 41°16' W 072°05'1 0.0
2018-Feb-14 00:57N 41°17' W 072°06'512.4
2018-Feb-14 00:30N 41°13' W 072°11'5 5.8
2018-Feb-13 23:43N 41°09' W 072°14'0 0.5
2018-Feb-13 23:11N 41°09' W 072°14'1 8.7
2018-Feb-13 23:00N 41°10' W 072°14'814.6
2018-Feb-13 22:30N 41°16' W 072°07'1 0.7
2018-Feb-13 20:50N 41°17' W 072°06'514.7
2018-Feb-13 20:30N 41°13' W 072°10'5 4.0
2018-Feb-13 19:18N 41°09' W 072°14'311.3
2018-Feb-13 19:01N 41°12' W 072°13'611.8
2018-Feb-13 18:30N 41°16' W 072°07'1 0.6
2018-Feb-13 16:52N 41°16' W 072°06'614.5
2018-Feb-13 16:27N 41°12' W 072°11'3 2.5
2018-Feb-13 15:12N 41°09' W 072°13'312.3
2018-Feb-13 14:58N 41°12' W 072°13'613.4
2018-Feb-13 14:30N 41°16' W 072°07'1 0.6
2018-Feb-13 13:03N 41°17' W 072°05'111.6
2018-Feb-13 12:59N 41°16' W 072°06'511.3
2018-Feb-13 12:30N 41°12' W 072°11'4 0.3
2018-Feb-13 01:09N 41°09' W 072°14'210.5
2018-Feb-13 01:00N 41°11' W 072°13'714.0
2018-Feb-13 00:29N 41°16' W 072°07'1 0.8
2018-Feb-12 22:54N 41°17' W 072°05'613.5
2018-Feb-12 22:29N 41°13' W 072°11'4 3.4
2018-Feb-12 21:11N 41°09' W 072°14'2 9.0
2018-Feb-12 21:00N 41°11' W 072°14'714.2
2018-Feb-12 20:30N 41°16' W 072°08'3 1.4
2018-Feb-12 18:38N 41°14' W 072°09'214.1
2018-Feb-12 18:30N 41°12' W 072°11'4 2.9
2018-Feb-12 17:12N 41°09' W 072°13'211.3
2018-Feb-12 17:00N 41°12' W 072°13'712.1
2018-Feb-12 16:27N 41°16' W 072°07'1 0.7
2018-Feb-12 14:49N 41°15' W 072°07'413.0
2018-Feb-12 14:29N 41°12' W 072°11'4 3.2
2018-Feb-12 13:15N 41°09' W 072°14'311.2
2018-Feb-12 13:00N 41°12' W 072°13'713.2
2018-Feb-12 12:30N 41°16' W 072°07'1 0.1
2018-Feb-12 00:55N 41°16' W 072°06'612.9
2018-Feb-12 00:29N 41°13' W 072°11'3 1.9
2018-Feb-11 23:02N 41°10' W 072°13'012.3
2018-Feb-11 23:00N 41°10' W 072°14'8 3.9
2018-Feb-11 20:52N 41°17' W 072°06'513.2
2018-Feb-11 20:30N 41°13' W 072°10'5 3.6
2018-Feb-11 19:13N 41°09' W 072°14'311.5
2018-Feb-11 18:58N 41°12' W 072°12'612.9
2018-Feb-11 18:29N 41°16' W 072°07'1 0.5
2018-Feb-11 16:53N 41°16' W 072°06'513.8
2018-Feb-11 16:30N 41°13' W 072°11'4 3.7
2018-Feb-11 15:20N 41°09' W 072°14'3 9.4
2018-Feb-11 15:00N 41°12' W 072°13'612.2
2018-Feb-11 14:30N 41°16' W 072°07'1 0.7
2018-Feb-11 12:52N 41°17' W 072°06'614.1
2018-Feb-11 12:28N 41°13' W 072°11'4 0.4
2018-Feb-11 01:06N 41°09' W 072°14'111.3
2018-Feb-11 00:59N 41°10' W 072°13'814.2
2018-Feb-11 00:27N 41°16' W 072°07'1 0.7
2018-Feb-10 22:56N 41°17' W 072°06'612.7
2018-Feb-10 22:29N 41°13' W 072°11'4 3.3
2018-Feb-10 21:14N 41°09' W 072°14'2 7.5
2018-Feb-10 21:01N 41°11' W 072°14'713.9
2018-Feb-10 20:30N 41°16' W 072°07'2 1.0
2018-Feb-10 18:57N 41°17' W 072°06'613.3
2018-Feb-10 18:30N 41°12' W 072°11'4 3.2
2018-Feb-10 17:14N 41°09' W 072°14'311.4
2018-Feb-10 17:00N 41°12' W 072°13'613.0
2018-Feb-10 16:31N 41°16' W 072°07'2 1.5
2018-Feb-10 14:58N 41°18' W 072°05'714.2
2018-Feb-10 14:28N 41°13' W 072°11'4 3.1
2018-Feb-10 13:09N 41°09' W 072°14'1 8.0
2018-Feb-10 12:59N 41°10' W 072°13'714.0
2018-Feb-10 12:30N 41°16' W 072°08'2 0.2
2018-Feb-10 00:53N 41°17' W 072°06'614.4
2018-Feb-10 00:30N 41°13' W 072°11'5 3.4
2018-Feb-09 23:10N 41°09' W 072°14'2 9.8
2018-Feb-09 23:00N 41°11' W 072°13'313.1
2018-Feb-09 22:46N 41°13' W 072°11'3 0.9
2018-Feb-09 19:01N 41°10' W 072°13'4 0.2
2018-Feb-08 22:30N 41°13' W 072°10'3 0.5
2018-Feb-08 16:30N 41°15' W 072°08'3 1.5
2018-Feb-08 14:30N 41°13' W 072°10'2 0.2
2018-Feb-08 00:43N 41°14' W 072°08'315.4
2018-Feb-08 00:29N 41°12' W 072°12'4 2.9
2018-Feb-07 23:15N 41°09' W 072°14'3 9.6
2018-Feb-07 22:58N 41°12' W 072°14'713.1
2018-Feb-07 22:27N 41°16' W 072°07'9 0.4
2018-Feb-07 01:14N 41°09' W 072°14'311.9
2018-Feb-07 01:00N 41°12' W 072°13'611.9
2018-Feb-07 00:30N 41°16' W 072°07'1 0.9
2018-Feb-06 22:55N 41°17' W 072°05'614.3
2018-Feb-06 22:30N 41°13' W 072°11'4 3.3
2018-Feb-06 21:14N 41°09' W 072°14'210.8
2018-Feb-06 21:00N 41°11' W 072°13'713.5
2018-Feb-06 20:30N 41°16' W 072°07'1 0.9
2018-Feb-06 19:00N 41°17' W 072°06'612.2
2018-Feb-06 18:29N 41°12' W 072°11'4 2.9
2018-Feb-06 17:12N 41°09' W 072°14'210.1
2018-Feb-06 17:00N 41°11' W 072°13'713.7
2018-Feb-06 16:29N 41°16' W 072°07'1 0.5
2018-Feb-06 14:54N 41°17' W 072°06'613.6
2018-Feb-06 14:28N 41°12' W 072°11'3 2.8
2018-Feb-06 13:13N 41°09' W 072°13'312.3
2018-Feb-06 13:00N 41°12' W 072°13'611.6
2018-Feb-06 12:30N 41°16' W 072°07'2 0.1
2018-Feb-06 00:55N 41°16' W 072°05'613.4
2018-Feb-06 00:30N 41°12' W 072°10'4 3.3
2018-Feb-05 23:10N 41°09' W 072°14'211.9
2018-Feb-05 22:58N 41°11' W 072°13'612.9
2018-Feb-05 22:30N 41°16' W 072°08'2 1.0
2018-Feb-05 20:55N 41°17' W 072°06'613.7
2018-Feb-05 20:30N 41°12' W 072°11'3 2.0
2018-Feb-05 19:03N 41°11' W 072°14'113.4
2018-Feb-05 18:59N 41°11' W 072°13'713.8
2018-Feb-05 18:30N 41°16' W 072°07'1 0.5
2018-Feb-05 16:53N 41°16' W 072°06'512.1
2018-Feb-05 16:29N 41°12' W 072°11'3 1.9
2018-Feb-05 15:03N 41°10' W 072°14'112.9
2018-Feb-05 15:00N 41°11' W 072°13'713.4
2018-Feb-05 14:27N 41°16' W 072°07'  

Dump ship's entire track history